Decker, Michigan
Current Conditions -  °F | °C
As of 9:25 AM on Sunday 23 Nov 2014 (Local Time) from KCFS Reporting Station
Overcast Overcast  
Wind Chill: 43°   Ceiling: 8000
Heat Index: 48°   Visibility: 10mi
Dew Point: 45°   Wind: 12mph
Humidity: 87%   Direction: 170°S
Pressure: 29.87"   Gusts: NA
Location:  43.46°N, 83.05°W
Report Text: KCFS 231425Z AUTO 17010KT 10SM SCT041 BKN080 OVC100 09/07 A2987 RMK AO2
Loading
Personal Weather Stations






























Interactive Weather Map New forecast layout! Learn more

10-Day Weather Forecast

Advertisements
Track Severe Weather on mobile